Time;durP1;ratioP1;P1;durP2;ratioP2;P2;SDS_P1;SDS_P2;PMS_P1;PMS_P2;Temp;Humidity;BMP_temperature;BMP_pressure;BME280_temperature;BME280_humidity;BME280_pressure;Samples;Min_cycle;Max_cycle;Signal;HPM_P1;HPM_P2
2022/03/03 00:01:16;;;;;;;36.90;23.92;;;24.00;97.50;;;;;;4161423;28;20610;-67
2022/03/03 00:03:20;;;;;;;40.35;29.10;;;24.10;97.50;;;;;;4163266;28;20077;-67
2022/03/03 00:05:25;;;;;;;39.17;30.17;;;24.10;97.50;;;;;;4165098;28;20053;-68
2022/03/03 00:07:30;;;;;;;40.17;28.58;;;24.10;97.40;;;;;;4166330;28;20053;-67
2022/03/03 00:09:39;;;;;;;32.33;24.13;;;24.10;97.20;;;;;;4163468;28;20053;-67
2022/03/03 00:11:44;;;;;;;33.03;22.05;;;24.20;97.10;;;;;;4163486;28;20049;-67
2022/03/03 00:13:48;;;;;;;26.42;19.77;;;24.20;96.90;;;;;;4163164;28;20049;-67
2022/03/03 00:15:55;;;;;;;25.10;17.83;;;24.30;96.80;;;;;;4161220;28;20041;-66
2022/03/03 00:18:00;;;;;;;23.17;16.38;;;24.30;96.40;;;;;;4163677;28;20057;-68
2022/03/03 00:20:08;;;;;;;25.90;15.60;;;24.40;96.10;;;;;;4161491;28;20045;-68
2022/03/03 00:22:15;;;;;;;21.42;14.77;;;24.40;95.90;;;;;;4171083;28;20128;-68
2022/03/03 00:24:20;;;;;;;20.17;14.65;;;24.40;95.80;;;;;;4164565;28;20049;-68
2022/03/03 00:26:24;;;;;;;23.05;15.48;;;24.40;95.90;;;;;;4163058;28;20049;-67
2022/03/03 00:28:32;;;;;;;20.05;14.75;;;24.50;95.80;;;;;;4158853;28;20068;-67
2022/03/03 00:30:50;;;;;;;25.48;14.63;;;24.50;95.80;;;;;;4175791;28;20052;-66
2022/03/03 00:32:55;;;;;;;23.55;14.70;;;24.50;95.60;;;;;;4164353;28;20073;-67
2022/03/03 00:35:04;;;;;;;20.60;13.45;;;24.50;95.50;;;;;;4164473;28;20400;-67
2022/03/03 00:37:08;;;;;;;22.25;14.05;;;24.60;95.50;;;;;;4165030;28;20488;-67
2022/03/03 00:39:13;;;;;;;22.45;13.80;;;24.60;95.60;;;;;;4164331;28;20092;-67
2022/03/03 00:41:18;;;;;;;19.00;13.18;;;24.60;95.50;;;;;;4163215;28;20128;-66
2022/03/03 00:43:22;;;;;;;18.77;13.20;;;24.70;95.40;;;;;;4160351;28;20046;-67
2022/03/03 00:45:27;;;;;;;18.63;13.10;;;24.70;95.40;;;;;;4163244;28;20044;-67
2022/03/03 00:47:35;;;;;;;16.38;12.95;;;24.70;95.40;;;;;;4161838;28;20050;-67
2022/03/03 00:49:40;;;;;;;17.38;12.52;;;24.80;95.10;;;;;;4158030;28;20054;-67
2022/03/03 00:51:44;;;;;;;17.13;12.63;;;24.80;94.90;;;;;;4163919;28;20053;-67
2022/03/03 00:53:53;;;;;;;17.75;12.30;;;24.70;94.90;;;;;;4164286;28;20123;-67
2022/03/03 00:55:57;;;;;;;20.67;11.65;;;24.70;94.70;;;;;;4162765;28;20056;-66
2022/03/03 00:58:03;;;;;;;17.92;11.60;;;24.80;94.40;;;;;;4164007;28;20037;-69
2022/03/03 01:00:11;;;;;;;14.82;10.65;;;24.90;94.20;;;;;;4166532;28;20064;-68
2022/03/03 01:02:16;;;;;;;55.55;12.88;;;25.00;94.10;;;;;;4167527;28;20456;-67
2022/03/03 01:04:22;;;;;;;46.30;13.27;;;25.10;94.20;;;;;;4162536;28;20107;-67
2022/03/03 01:06:31;;;;;;;21.75;11.40;;;25.20;94.10;;;;;;4169229;28;20077;-67
2022/03/03 01:08:36;;;;;;;21.95;11.07;;;25.20;94.00;;;;;;4163791;28;20151;-68
2022/03/03 01:10:41;;;;;;;20.67;11.00;;;25.30;93.90;;;;;;4164699;28;20407;-68
2022/03/03 01:12:48;;;;;;;17.20;11.15;;;25.30;93.80;;;;;;4165845;28;20044;-68
2022/03/03 01:14:52;;;;;;;16.80;11.77;;;25.30;93.80;;;;;;4171625;28;20063;-67
2022/03/03 01:16:57;;;;;;;16.08;11.63;;;25.30;93.60;;;;;;4162205;28;20054;-68
2022/03/03 01:19:06;;;;;;;17.65;11.23;;;25.30;93.60;;;;;;4163994;28;20037;-68
2022/03/03 01:21:11;;;;;;;17.63;11.45;;;25.40;93.50;;;;;;4166760;28;20071;-68
2022/03/03 01:23:16;;;;;;;17.20;11.00;;;25.40;93.50;;;;;;4163725;28;20125;-68
2022/03/03 01:25:25;;;;;;;16.08;11.00;;;25.50;93.40;;;;;;4163610;28;20037;-68
2022/03/03 01:27:31;;;;;;;15.55;11.18;;;25.50;93.30;;;;;;4163648;28;20033;-67
2022/03/03 01:29:35;;;;;;;21.48;12.20;;;25.60;93.40;;;;;;4163109;28;20045;-66
2022/03/03 01:31:46;;;;;;;18.45;11.32;;;25.60;93.40;;;;;;4162667;28;20089;-66
2022/03/03 01:33:51;;;;;;;29.98;13.63;;;25.70;93.30;;;;;;4163431;28;20107;-66
2022/03/03 01:35:56;;;;;;;46.70;13.60;;;25.70;93.30;;;;;;4163550;28;20442;-66
2022/03/03 01:38:05;;;;;;;31.75;13.10;;;25.70;93.10;;;;;;4163478;28;20125;-66
2022/03/03 01:40:10;;;;;;;30.38;13.23;;;25.70;93.10;;;;;;4167583;28;20048;-66
2022/03/03 01:42:16;;;;;;;19.75;12.35;;;25.80;93.10;;;;;;4163141;28;20080;-67
2022/03/03 01:44:24;;;;;;;17.60;11.95;;;25.70;93.00;;;;;;4163421;28;20496;-66
2022/03/03 01:46:29;;;;;;;19.02;12.35;;;25.80;93.00;;;;;;4158531;28;20735;-67
2022/03/03 01:48:34;;;;;;;15.10;11.38;;;25.80;92.90;;;;;;4154556;28;20045;-66
2022/03/03 01:50:43;;;;;;;18.30;12.13;;;25.90;92.90;;;;;;4164871;28;20057;-67
2022/03/03 01:52:47;;;;;;;16.05;12.05;;;26.00;92.90;;;;;;4159528;28;20053;-67
2022/03/03 01:54:52;;;;;;;20.08;11.68;;;26.00;92.90;;;;;;4162831;28;20061;-67
2022/03/03 01:57:07;;;;;;;18.73;11.75;;;26.00;92.80;;;;;;4162898;28;20080;-67
2022/03/03 01:59:12;;;;;;;18.20;11.57;;;26.10;92.70;;;;;;4163931;28;20081;-67
2022/03/03 02:01:17;;;;;;;16.13;11.30;;;26.10;92.80;;;;;;4160659;28;20136;-67
2022/03/03 02:03:28;;;;;;;16.63;11.43;;;26.10;92.80;;;;;;4170102;28;20534;-66
2022/03/03 02:05:34;;;;;;;18.67;11.95;;;26.20;92.70;;;;;;4168715;28;20053;-65
2022/03/03 02:07:41;;;;;;;16.80;11.40;;;26.20;92.60;;;;;;4159172;28;20056;-66
2022/03/03 02:09:47;;;;;;;17.15;11.52;;;26.30;92.50;;;;;;4164248;28;20053;-66
2022/03/03 02:11:52;;;;;;;16.90;11.85;;;26.20;92.60;;;;;;4163176;28;20051;-66
2022/03/03 02:13:57;;;;;;;15.00;11.07;;;26.30;92.60;;;;;;4165969;28;20129;-66
2022/03/03 02:16:05;;;;;;;17.33;12.10;;;26.40;92.40;;;;;;4157768;28;20049;-66
2022/03/03 02:18:10;;;;;;;14.85;10.82;;;26.40;92.20;;;;;;4164865;28;20059;-66
2022/03/03 02:20:23;;;;;;;14.95;10.75;;;26.40;92.30;;;;;;4162717;28;20057;-66
2022/03/03 02:22:35;;;;;;;16.25;11.10;;;26.50;92.40;;;;;;4158616;28;20049;-66
2022/03/03 02:24:40;;;;;;;15.68;10.98;;;26.50;92.40;;;;;;4162306;28;20616;-66
2022/03/03 02:26:45;;;;;;;15.07;10.35;;;26.60;92.30;;;;;;4162662;28;20042;-66
2022/03/03 02:28:52;;;;;;;13.20;9.93;;;26.60;92.20;;;;;;4162438;28;20050;-66
2022/03/03 02:31:02;;;;;;;12.52;9.70;;;26.60;92.10;;;;;;4166668;28;20428;-66
2022/03/03 02:33:09;;;;;;;14.70;10.38;;;26.70;91.90;;;;;;4161780;28;20064;-66
2022/03/03 02:35:17;;;;;;;15.15;10.95;;;26.70;91.90;;;;;;4162543;28;20045;-67
2022/03/03 02:37:24;;;;;;;15.77;10.18;;;26.80;91.80;;;;;;4155302;28;20644;-66
2022/03/03 02:39:30;;;;;;;16.70;9.90;;;26.80;91.90;;;;;;4161842;28;20133;-67
2022/03/03 02:41:37;;;;;;;15.75;10.05;;;26.90;91.70;;;;;;4161834;28;20040;-67
2022/03/03 02:43:42;;;;;;;14.68;9.82;;;26.90;91.80;;;;;;4157438;28;20075;-66
2022/03/03 02:45:50;;;;;;;17.77;10.75;;;27.00;91.60;;;;;;4165097;28;20353;-66
2022/03/03 02:47:59;;;;;;;14.65;10.35;;;27.00;91.60;;;;;;4162967;28;20049;-67
2022/03/03 02:50:03;;;;;;;15.68;10.75;;;27.00;91.60;;;;;;4159116;28;20163;-67
2022/03/03 02:52:09;;;;;;;13.60;10.15;;;27.00;91.50;;;;;;4156015;28;20087;-66
2022/03/03 02:54:14;;;;;;;15.63;11.07;;;27.10;91.50;;;;;;4152280;28;20099;-67
2022/03/03 02:56:20;;;;;;;16.48;10.80;;;27.10;91.30;;;;;;4159904;28;20065;-66
2022/03/03 02:58:24;;;;;;;15.85;11.00;;;27.20;91.40;;;;;;4160814;28;20050;-67
2022/03/03 03:00:38;;;;;;;17.35;10.95;;;27.20;91.10;;;;;;4162848;28;20073;-66
2022/03/03 03:02:43;;;;;;;13.05;10.32;;;27.30;91.00;;;;;;4161817;28;20152;-66
2022/03/03 03:04:48;;;;;;;12.68;9.77;;;27.30;90.90;;;;;;4162181;28;20095;-66
2022/03/03 03:06:57;;;;;;;17.40;10.77;;;27.30;90.80;;;;;;4159413;28;20152;-67
2022/03/03 03:09:02;;;;;;;13.48;10.35;;;27.40;90.90;;;;;;4161725;28;20049;-67
2022/03/03 03:11:06;;;;;;;14.25;9.77;;;27.40;90.80;;;;;;4161315;28;20041;-66
2022/03/03 03:13:15;;;;;;;13.27;9.88;;;27.50;90.80;;;;;;4157350;28;20061;-66
2022/03/03 03:15:19;;;;;;;14.20;10.23;;;27.60;90.90;;;;;;4161790;28;20551;-67
2022/03/03 03:17:24;;;;;;;14.48;10.60;;;27.60;90.90;;;;;;4162323;28;20099;-66
2022/03/03 03:19:33;;;;;;;12.65;10.30;;;27.60;90.40;;;;;;4161810;28;20095;-66
2022/03/03 03:21:37;;;;;;;14.18;10.13;;;27.60;91.00;;;;;;4164965;28;20136;-67
2022/03/03 03:23:42;;;;;;;14.27;10.68;;;27.60;90.80;;;;;;4165295;28;20038;-67
2022/03/03 03:25:46;;;;;;;14.25;10.45;;;27.70;90.70;;;;;;4164390;28;20588;-67
2022/03/03 03:27:51;;;;;;;14.05;10.30;;;27.70;90.80;;;;;;4161248;28;20053;-67
2022/03/03 03:29:55;;;;;;;16.35;10.52;;;27.80;90.70;;;;;;4161572;28;20064;-67
2022/03/03 03:32:04;;;;;;;14.45;10.70;;;27.80;90.70;;;;;;4159280;28;20728;-67
2022/03/03 03:34:11;;;;;;;13.27;10.60;;;27.80;90.70;;;;;;4159735;28;20154;-67
2022/03/03 03:36:15;;;;;;;14.95;10.70;;;27.90;90.80;;;;;;4161606;28;20115;-67
2022/03/03 03:38:24;;;;;;;17.77;11.48;;;27.90;90.50;;;;;;4157541;28;20072;-67
2022/03/03 03:40:28;;;;;;;14.40;10.45;;;27.90;90.50;;;;;;4159868;28;20128;-67
2022/03/03 03:42:33;;;;;;;18.40;11.23;;;28.00;90.50;;;;;;4163856;28;20143;-67
2022/03/03 03:44:42;;;;;;;14.38;11.68;;;27.90;90.50;;;;;;4164297;28;20128;-66
2022/03/03 03:46:47;;;;;;;17.92;10.75;;;27.80;90.30;;;;;;4165204;28;20041;-67
2022/03/03 03:48:53;;;;;;;15.30;10.98;;;27.90;90.20;;;;;;4164568;28;20069;-67
2022/03/03 03:51:00;;;;;;;14.25;10.35;;;28.00;90.20;;;;;;4164972;28;20054;-67
2022/03/03 03:53:05;;;;;;;25.27;9.93;;;28.10;90.40;;;;;;4165148;28;20123;-67
2022/03/03 03:55:10;;;;;;;18.13;10.68;;;28.20;90.50;;;;;;4165230;28;20061;-67
2022/03/03 03:57:19;;;;;;;12.65;9.77;;;28.20;90.60;;;;;;4167601;28;20053;-67
2022/03/03 03:59:23;;;;;;;14.00;10.93;;;28.30;90.40;;;;;;4164791;28;20092;-67
2022/03/03 04:01:30;;;;;;;16.58;11.23;;;28.30;90.00;;;;;;4157956;28;20127;-66
2022/03/03 04:03:35;;;;;;;15.05;10.50;;;28.30;89.10;;;;;;4162665;28;20435;-67
2022/03/03 04:05:39;;;;;;;16.33;10.63;;;28.30;89.30;;;;;;4165469;28;20610;-67
2022/03/03 04:07:44;;;;;;;13.77;10.23;;;28.30;89.20;;;;;;4163814;28;20049;-67
2022/03/03 04:09:51;;;;;;;16.70;10.73;;;28.40;88.80;;;;;;4164131;28;20108;-67
2022/03/03 04:11:55;;;;;;;17.77;11.23;;;28.50;88.70;;;;;;4164714;28;20745;-67
2022/03/03 04:14:00;;;;;;;16.05;11.30;;;28.50;88.90;;;;;;4164372;28;20049;-67
2022/03/03 04:16:08;;;;;;;12.75;10.55;;;28.60;88.80;;;;;;4166477;28;20122;-67
2022/03/03 04:18:13;;;;;;;16.05;11.27;;;28.60;88.90;;;;;;4165324;28;20056;-67
2022/03/03 04:20:18;;;;;;;18.65;12.15;;;28.70;89.10;;;;;;4163717;28;20133;-67
2022/03/03 04:22:27;;;;;;;16.48;12.73;;;28.70;88.90;;;;;;4164262;28;20448;-67
2022/03/03 04:24:31;;;;;;;19.10;12.27;;;28.80;88.60;;;;;;4169816;28;20065;-66
2022/03/03 04:26:35;;;;;;;16.15;12.82;;;28.80;88.00;;;;;;4164334;28;20050;-67
2022/03/03 04:28:44;;;;;;;18.38;12.50;;;28.80;88.50;;;;;;4164486;28;20049;-67
2022/03/03 04:30:48;;;;;;;17.75;12.75;;;28.90;89.20;;;;;;4164675;28;20048;-67
2022/03/03 04:32:53;;;;;;;17.00;12.88;;;29.00;88.70;;;;;;4160806;28;20061;-66
2022/03/03 04:35:01;;;;;;;16.40;12.73;;;29.00;87.50;;;;;;4163054;28;20061;-67
2022/03/03 04:37:06;;;;;;;17.38;13.05;;;29.00;87.00;;;;;;4164473;28;20057;-67
2022/03/03 04:39:11;;;;;;;17.40;12.93;;;29.00;86.90;;;;;;4162279;28;20770;-67
2022/03/03 04:41:19;;;;;;;15.95;12.35;;;29.00;87.50;;;;;;4163998;28;20087;-67
2022/03/03 04:43:24;;;;;;;20.85;12.20;;;29.10;87.60;;;;;;4164290;28;20049;-67
2022/03/03 04:45:29;;;;;;;16.17;12.40;;;29.20;87.90;;;;;;4163240;28;20088;-67
2022/03/03 04:47:37;;;;;;;15.88;12.45;;;29.20;88.10;;;;;;4161496;28;20133;-67
2022/03/03 04:49:42;;;;;;;16.95;12.60;;;29.30;87.90;;;;;;4163204;28;20105;-67
2022/03/03 04:51:46;;;;;;;21.77;11.90;;;29.30;87.30;;;;;;4163222;28;20127;-67
2022/03/03 04:53:53;;;;;;;19.08;12.65;;;29.40;87.10;;;;;;4164430;28;20076;-67
2022/03/03 04:55:58;;;;;;;16.40;12.02;;;29.40;87.20;;;;;;4158650;28;20049;-67
2022/03/03 04:58:03;;;;;;;13.40;11.80;;;29.40;87.20;;;;;;4163404;28;20765;-67
2022/03/03 05:00:12;;;;;;;15.10;11.35;;;29.50;87.00;;;;;;4161100;28;20711;-67
2022/03/03 05:02:16;;;;;;;14.73;11.38;;;29.50;84.90;;;;;;4160314;28;20179;-67
2022/03/03 05:04:21;;;;;;;13.70;11.38;;;29.50;84.30;;;;;;4169044;28;20429;-67
2022/03/03 05:06:27;;;;;;;14.90;11.45;;;29.60;85.00;;;;;;4162820;28;20107;-67
2022/03/03 05:08:32;;;;;;;12.70;10.80;;;29.60;84.70;;;;;;4169798;28;20049;-67
2022/03/03 05:10:36;;;;;;;11.95;10.40;;;29.60;85.00;;;;;;4180451;28;20396;-67
2022/03/03 05:12:43;;;;;;;13.77;10.73;;;29.70;84.80;;;;;;4163747;28;20071;-67
2022/03/03 05:14:47;;;;;;;12.35;10.65;;;29.80;84.20;;;;;;4157658;28;20041;-67
2022/03/03 05:16:51;;;;;;;12.02;9.90;;;29.90;84.80;;;;;;4161934;28;20145;-68
2022/03/03 05:19:00;;;;;;;12.07;9.88;;;29.90;81.90;;;;;;4159301;28;20048;-67
2022/03/03 05:21:05;;;;;;;11.57;9.35;;;29.90;83.00;;;;;;4163249;28;20073;-67
2022/03/03 05:23:09;;;;;;;11.05;9.32;;;30.00;82.70;;;;;;4162979;28;20111;-67
2022/03/03 05:25:16;;;;;;;11.63;8.85;;;30.00;81.20;;;;;;4163236;28;20048;-67
2022/03/03 05:27:20;;;;;;;10.75;8.93;;;30.10;81.80;;;;;;4163275;28;20041;-67
2022/03/03 05:29:27;;;;;;;10.90;8.90;;;30.10;81.60;;;;;;4162628;28;20576;-67
2022/03/03 05:31:35;;;;;;;11.63;8.65;;;30.20;81.90;;;;;;4159598;28;20503;-67
2022/03/03 05:33:40;;;;;;;9.93;8.90;;;30.20;81.30;;;;;;4162304;28;20492;-66
2022/03/03 05:35:44;;;;;;;11.20;9.55;;;30.20;80.90;;;;;;4161810;28;20143;-67
2022/03/03 05:37:53;;;;;;;13.57;10.32;;;30.30;80.90;;;;;;4163103;28;20520;-67
2022/03/03 05:39:57;;;;;;;13.52;11.43;;;30.30;80.20;;;;;;4162724;28;20076;-67
2022/03/03 05:42:02;;;;;;;17.88;13.80;;;30.40;80.60;;;;;;4163371;28;20526;-67
2022/03/03 05:44:13;;;;;;;17.58;14.57;;;30.40;80.70;;;;;;4162324;28;20056;-67
2022/03/03 05:46:17;;;;;;;15.07;12.48;;;30.50;80.80;;;;;;4163132;28;20111;-68
2022/03/03 05:48:22;;;;;;;14.13;11.40;;;30.50;79.90;;;;;;4163003;28;20060;-67
2022/03/03 05:50:29;;;;;;;13.52;10.80;;;30.60;80.20;;;;;;4166306;28;20041;-68
2022/03/03 05:52:34;;;;;;;11.52;10.10;;;30.60;79.80;;;;;;4166702;28;20044;-67
2022/03/03 05:54:39;;;;;;;11.35;9.93;;;30.60;79.80;;;;;;4162674;28;20469;-67
2022/03/03 05:56:46;;;;;;;14.55;10.07;;;30.70;80.20;;;;;;4163025;28;20037;-67
2022/03/03 05:58:50;;;;;;;13.85;10.20;;;30.70;80.40;;;;;;4160948;28;20554;-67
2022/03/03 06:00:58;;;;;;;11.82;10.15;;;30.70;80.40;;;;;;4163352;28;20080;-68
2022/03/03 06:03:06;;;;;;;13.88;12.20;;;30.80;80.60;;;;;;4156518;28;20107;-67
2022/03/03 06:05:13;;;;;;;14.05;11.68;;;30.90;78.80;;;;;;4166479;28;20045;-67
2022/03/03 06:07:25;;;;;;;17.60;12.15;;;30.90;79.10;;;;;;4162382;28;20056;-67
2022/03/03 06:09:34;;;;;;;17.50;14.70;;;30.90;79.50;;;;;;4159972;28;20580;-67
2022/03/03 06:11:49;;;;;;;21.05;16.00;;;31.00;80.10;;;;;;4160244;28;20048;-68
2022/03/03 06:14:02;;;;;;;16.85;14.95;;;31.10;80.10;;;;;;4162720;28;20050;-67
2022/03/03 06:16:11;;;;;;;21.65;15.68;;;31.10;80.00;;;;;;4165940;28;20540;-67
2022/03/03 06:18:15;;;;;;;17.98;14.60;;;31.10;79.50;;;;;;4164852;28;20436;-67
2022/03/03 06:20:19;;;;;;;19.83;15.45;;;31.10;79.70;;;;;;4160580;28;20124;-67
2022/03/03 06:22:28;;;;;;;20.13;14.98;;;31.20;80.00;;;;;;4158858;28;20057;-67
2022/03/03 06:24:33;;;;;;;15.13;12.15;;;31.20;80.00;;;;;;4162770;28;20067;-66
2022/03/03 06:26:38;;;;;;;14.88;10.95;;;31.20;79.40;;;;;;4162285;28;20122;-67
2022/03/03 06:28:47;;;;;;;14.60;10.85;;;31.00;80.30;;;;;;4166390;28;20495;-67
2022/03/03 06:30:51;;;;;;;13.88;10.63;;;31.10;80.30;;;;;;4161219;28;20053;-67
2022/03/03 06:32:55;;;;;;;15.25;10.88;;;31.10;80.20;;;;;;4162438;28;20088;-67
2022/03/03 06:35:04;;;;;;;12.50;10.40;;;31.10;80.10;;;;;;4162292;28;20049;-67
2022/03/03 06:37:10;;;;;;;12.68;10.35;;;31.10;79.60;;;;;;4161842;28;20547;-66
2022/03/03 06:39:14;;;;;;;13.40;11.13;;;31.10;79.60;;;;;;4163694;28;20046;-67
2022/03/03 06:41:22;;;;;;;14.07;10.82;;;31.10;79.60;;;;;;4162335;28;20050;-67
2022/03/03 06:43:29;;;;;;;12.75;10.80;;;31.00;79.30;;;;;;4161706;28;20403;-67
2022/03/03 06:45:33;;;;;;;13.73;10.95;;;31.00;79.10;;;;;;4160948;28;20084;-67
2022/03/03 06:47:41;;;;;;;15.80;13.27;;;30.90;79.10;;;;;;4159487;28;20484;-67
2022/03/03 06:49:46;;;;;;;16.50;13.65;;;31.00;79.30;;;;;;4165321;28;20793;-67
2022/03/03 06:51:52;;;;;;;16.50;12.60;;;30.90;78.90;;;;;;4162244;28;20103;-67
2022/03/03 06:53:59;;;;;;;15.57;12.50;;;31.00;79.00;;;;;;4163367;28;20115;-67
2022/03/03 06:56:05;;;;;;;14.27;12.13;;;31.10;79.20;;;;;;4162096;28;20061;-67
2022/03/03 06:58:10;;;;;;;14.52;10.27;;;31.20;77.60;;;;;;4162008;28;20050;-67
2022/03/03 07:00:20;;;;;;;12.93;10.93;;;31.10;77.30;;;;;;4161260;28;20041;-67
2022/03/03 07:02:26;;;;;;;11.43;10.20;;;31.10;77.00;;;;;;4156298;28;20168;-67
2022/03/03 07:04:34;;;;;;;14.07;10.63;;;31.00;77.90;;;;;;4154924;28;20653;-67
2022/03/03 07:06:38;;;;;;;12.45;9.68;;;31.00;77.50;;;;;;4157216;28;20140;-67
2022/03/03 07:08:44;;;;;;;12.10;10.40;;;31.00;77.40;;;;;;4166292;28;20503;-67
2022/03/03 07:10:48;;;;;;;13.13;10.60;;;31.10;76.60;;;;;;4162611;28;20033;-67
2022/03/03 07:12:56;;;;;;;11.82;10.52;;;31.00;77.10;;;;;;4161520;28;20076;-67
2022/03/03 07:15:02;;;;;;;13.27;10.98;;;31.00;76.80;;;;;;4160902;28;20487;-66
2022/03/03 07:17:18;;;;;;;13.98;10.63;;;31.20;77.70;;;;;;4162335;28;20057;-67
2022/03/03 07:19:45;;;;;;;14.70;9.85;;;31.10;77.60;;;;;;4162420;28;20041;-67
2022/03/03 07:22:21;;;;;;;14.02;10.00;;;31.20;78.20;;;;;;4162501;28;20049;-67
2022/03/03 07:24:35;;;;;;;11.88;9.65;;;31.30;78.20;;;;;;4158525;28;20126;-67
2022/03/03 07:26:39;;;;;;;14.30;11.32;;;31.30;78.00;;;;;;4154703;28;20041;-67
2022/03/03 07:28:47;;;;;;;14.90;10.85;;;31.40;76.60;;;;;;4162303;28;20041;-67
2022/03/03 07:30:58;;;;;;;13.30;11.23;;;31.30;75.40;;;;;;4161497;28;20057;-67
2022/03/03 07:33:27;;;;;;;12.13;10.73;;;31.20;76.00;;;;;;4161309;28;20374;-67
2022/03/03 07:35:33;;;;;;;16.10;11.13;;;31.30;76.00;;;;;;4162208;28;20067;-67
2022/03/03 07:37:48;;;;;;;12.23;10.82;;;31.30;76.20;;;;;;4154721;28;20076;-67
2022/03/03 07:39:52;;;;;;;14.45;11.00;;;31.30;76.60;;;;;;4158960;28;20041;-66
2022/03/03 07:41:58;;;;;;;11.73;10.48;;;31.40;76.80;;;;;;4156401;28;20132;-67
2022/03/03 07:44:06;;;;;;;14.00;11.18;;;31.40;76.30;;;;;;4158789;28;20161;-67
2022/03/03 07:46:10;;;;;;;13.18;11.55;;;31.40;76.30;;;;;;4159248;28;20622;-67
2022/03/03 07:48:15;;;;;;;13.55;11.05;;;31.40;76.40;;;;;;4159285;28;20045;-67
2022/03/03 07:50:25;;;;;;;12.50;10.80;;;31.40;76.80;;;;;;4159362;28;20160;-67
2022/03/03 07:52:29;;;;;;;13.05;11.20;;;31.40;76.80;;;;;;4159245;28;20119;-67
2022/03/03 07:54:33;;;;;;;14.80;11.15;;;31.50;77.00;;;;;;4159431;28;20415;-67
2022/03/03 07:56:47;;;;;;;12.45;11.10;;;31.50;76.90;;;;;;4155438;28;20049;-67
2022/03/03 07:58:58;;;;;;;14.25;10.95;;;31.50;76.70;;;;;;4158000;28;20041;-67
2022/03/03 08:01:05;;;;;;;14.85;10.82;;;31.50;76.60;;;;;;4156087;28;20054;-67
2022/03/03 08:03:16;;;;;;;12.63;10.57;;;31.50;76.60;;;;;;4159388;28;20043;-67
2022/03/03 08:05:22;;;;;;;13.32;11.13;;;31.50;76.90;;;;;;4159648;28;20044;-67
2022/03/03 08:07:26;;;;;;;12.73;11.20;;;31.50;77.20;;;;;;4159421;28;20044;-67
2022/03/03 08:09:34;;;;;;;14.15;11.27;;;31.50;76.70;;;;;;4159207;28;20144;-67
2022/03/03 08:11:40;;;;;;;12.57;10.88;;;31.50;77.00;;;;;;4156271;28;20071;-67
2022/03/03 08:13:46;;;;;;;15.45;12.13;;;31.50;77.20;;;;;;4158923;28;20049;-67
2022/03/03 08:15:51;;;;;;;12.63;10.93;;;31.40;77.10;;;;;;4159355;28;20053;-67
2022/03/03 08:17:55;;;;;;;14.02;11.00;;;31.40;77.50;;;;;;4159356;28;20108;-67
2022/03/03 08:20:00;;;;;;;17.13;11.25;;;31.40;77.30;;;;;;4159248;28;20073;-66
2022/03/03 08:22:09;;;;;;;13.93;11.52;;;31.40;77.80;;;;;;4156055;28;20048;-67
2022/03/03 08:24:14;;;;;;;11.90;10.65;;;31.40;77.70;;;;;;4152026;28;20703;-67
2022/03/03 08:26:18;;;;;;;13.02;10.77;;;31.30;77.50;;;;;;4155923;28;20061;-68
2022/03/03 08:28:28;;;;;;;13.45;11.68;;;31.40;77.90;;;;;;4161192;28;20478;-67
2022/03/03 08:30:34;;;;;;;12.73;11.20;;;31.40;77.30;;;;;;4161652;28;20397;-67
2022/03/03 08:32:41;;;;;;;16.30;12.00;;;31.40;77.20;;;;;;4162198;28;20061;-67
2022/03/03 08:35:11;;;;;;;14.25;11.40;;;31.40;77.00;;;;;;4162319;28;20049;-67
2022/03/03 08:37:30;;;;;;;13.10;11.73;;;31.40;76.90;;;;;;4162844;28;20053;-67
2022/03/03 08:39:38;;;;;;;14.50;12.40;;;31.40;77.00;;;;;;4161998;28;20551;-67
2022/03/03 08:41:43;;;;;;;13.70;11.45;;;31.40;77.60;;;;;;4162518;28;20052;-67
2022/03/03 08:44:02;;;;;;;15.95;12.05;;;31.40;76.40;;;;;;4160535;28;20042;-67
2022/03/03 08:46:07;;;;;;;15.73;12.70;;;31.40;77.80;;;;;;4162858;28;20049;-67
2022/03/03 08:48:19;;;;;;;16.40;12.60;;;31.40;76.60;;;;;;4162826;28;20044;-67
2022/03/03 08:50:25;;;;;;;14.15;12.27;;;31.40;76.70;;;;;;4162693;28;20112;-67
2022/03/03 08:52:30;;;;;;;13.63;12.00;;;31.40;76.70;;;;;;4159965;28;20558;-67
2022/03/03 08:54:35;;;;;;;15.80;12.25;;;31.30;76.70;;;;;;4161491;28;20049;-67
2022/03/03 08:56:39;;;;;;;16.77;11.93;;;31.30;76.60;;;;;;4161312;28;20538;-67
2022/03/03 08:58:44;;;;;;;14.98;12.30;;;31.30;76.90;;;;;;4168170;28;20045;-67
2022/03/03 09:00:51;;;;;;;17.58;12.35;;;31.40;77.20;;;;;;4161011;28;20576;-67
2022/03/03 09:02:55;;;;;;;13.23;11.70;;;31.40;76.40;;;;;;4161397;28;20043;-68
2022/03/03 09:05:00;;;;;;;15.55;12.43;;;31.40;76.20;;;;;;4162355;28;20660;-67
2022/03/03 09:07:05;;;;;;;14.27;12.00;;;31.30;76.90;;;;;;4161581;28;20046;-66
2022/03/03 09:09:09;;;;;;;13.70;12.05;;;31.30;77.50;;;;;;4161936;28;20639;-67
2022/03/03 09:11:16;;;;;;;14.98;12.27;;;31.30;77.90;;;;;;4161366;28;20073;-67
2022/03/03 09:13:25;;;;;;;13.70;12.30;;;31.30;78.10;;;;;;4161715;28;20041;-67
2022/03/03 09:15:30;;;;;;;16.05;12.40;;;31.30;77.90;;;;;;4162132;28;20044;-68
2022/03/03 09:17:35;;;;;;;17.92;13.50;;;31.30;78.00;;;;;;4161763;28;20148;-68
2022/03/03 09:19:43;;;;;;;19.88;14.10;;;31.30;78.00;;;;;;4161933;28;20049;-67
2022/03/03 09:21:48;;;;;;;18.02;13.23;;;31.30;77.90;;;;;;4161596;28;20057;-68
2022/03/03 09:23:52;;;;;;;17.80;12.68;;;31.30;77.90;;;;;;4160607;28;20049;-68
2022/03/03 09:26:00;;;;;;;15.38;11.95;;;31.30;77.80;;;;;;4161450;28;20068;-68
2022/03/03 09:28:05;;;;;;;13.88;11.93;;;31.20;77.70;;;;;;4161464;28;20412;-67
2022/03/03 09:30:10;;;;;;;13.20;11.80;;;31.30;78.00;;;;;;4161358;28;20053;-67
2022/03/03 09:32:19;;;;;;;13.60;12.10;;;31.20;78.20;;;;;;4153837;28;20108;-67
2022/03/03 09:34:23;;;;;;;17.90;12.20;;;31.20;78.40;;;;;;4160671;28;20058;-67
2022/03/03 09:36:28;;;;;;;14.57;12.30;;;31.20;78.40;;;;;;4161657;28;20122;-68
2022/03/03 09:38:35;;;;;;;16.15;11.82;;;31.20;78.30;;;;;;4160098;28;20077;-68
2022/03/03 09:40:44;;;;;;;15.25;12.48;;;31.20;78.40;;;;;;4160189;28;20041;-67
2022/03/03 09:42:58;;;;;;;15.70;11.50;;;31.30;78.30;;;;;;4159997;28;20041;-68
2022/03/03 09:45:07;;;;;;;15.02;12.52;;;31.30;78.40;;;;;;4161062;28;20524;-68
2022/03/03 09:47:12;;;;;;;17.55;12.55;;;31.20;78.50;;;;;;4160999;28;20037;-68
2022/03/03 09:49:16;;;;;;;14.18;11.98;;;31.30;78.60;;;;;;4161081;28;20508;-68
2022/03/03 09:51:23;;;;;;;19.40;12.50;;;31.30;78.70;;;;;;4161410;28;20088;-67
2022/03/03 09:53:27;;;;;;;18.15;13.90;;;31.30;78.50;;;;;;4160404;28;20045;-67
2022/03/03 09:55:32;;;;;;;17.10;14.07;;;31.20;78.30;;;;;;4161100;28;20053;-67
2022/03/03 09:57:40;;;;;;;21.92;14.45;;;31.20;78.20;;;;;;4160718;28;20080;-67
2022/03/03 09:59:45;;;;;;;19.92;14.43;;;31.20;78.40;;;;;;4153465;28;20140;-67
2022/03/03 10:01:49;;;;;;;17.75;14.32;;;31.20;78.40;;;;;;4160990;28;20045;-67
2022/03/03 10:03:58;;;;;;;16.52;13.30;;;31.10;78.40;;;;;;4160152;28;20049;-67
2022/03/03 10:06:06;;;;;;;17.75;13.10;;;31.10;78.10;;;;;;4161514;28;20056;-67
2022/03/03 10:08:11;;;;;;;18.38;13.23;;;31.00;78.20;;;;;;4155714;28;20053;-67
2022/03/03 10:10:19;;;;;;;16.25;13.15;;;31.00;78.60;;;;;;4161236;28;20076;-66
2022/03/03 10:12:26;;;;;;;20.95;14.93;;;31.00;78.80;;;;;;4161004;28;20133;-68
2022/03/03 10:14:35;;;;;;;25.08;18.88;;;31.00;79.20;;;;;;4161386;28;20063;-69
2022/03/03 10:16:47;;;;;;;25.48;19.98;;;31.00;79.50;;;;;;4160922;28;20069;-68
2022/03/03 10:19:11;;;;;;;25.08;18.33;;;31.00;80.00;;;;;;4161161;28;20081;-68
2022/03/03 10:21:16;;;;;;;18.30;15.43;;;31.00;80.10;;;;;;4160417;28;20136;-68
2022/03/03 10:23:32;;;;;;;17.48;15.07;;;30.90;80.10;;;;;;4159842;28;20049;-68
2022/03/03 10:25:39;;;;;;;16.10;14.40;;;30.90;80.30;;;;;;4159889;28;20041;-69
2022/03/03 10:27:43;;;;;;;18.90;13.13;;;30.90;80.60;;;;;;4160484;28;20045;-67
2022/03/03 10:29:52;;;;;;;20.75;13.82;;;30.90;80.90;;;;;;4160786;28;20431;-67
2022/03/03 10:31:57;;;;;;;18.85;13.70;;;30.90;81.20;;;;;;4160412;28;20045;-67
2022/03/03 10:34:01;;;;;;;19.38;13.52;;;30.90;81.80;;;;;;4161229;28;20045;-67
2022/03/03 10:36:26;;;;;;;18.98;14.60;;;30.80;81.90;;;;;;4159314;28;20580;-68
2022/03/03 10:38:31;;;;;;;17.98;16.08;;;30.80;81.90;;;;;;4160598;28;20643;-67
2022/03/03 10:40:38;;;;;;;22.17;18.30;;;30.80;82.00;;;;;;4153715;28;20080;-67
2022/03/03 10:42:48;;;;;;;24.48;20.25;;;30.80;82.20;;;;;;4158749;28;20407;-68
2022/03/03 10:45:11;;;;;;;25.92;20.75;;;30.80;82.60;;;;;;4156003;28;20042;-67